sensor_id;sensor_type;location;lat;lon;timestamp;pressure;altitude;pressure_sealevel;temperature;humidity
19624;BME280;9959;49.798;9.928;2023-01-25T00:01:34;101528.31;;;0.62;97.01
19624;BME280;9959;49.798;9.928;2023-01-25T00:04:00;101521.09;;;0.64;96.79
19624;BME280;9959;49.798;9.928;2023-01-25T00:06:27;101515.31;;;0.84;96.43
19624;BME280;9959;49.798;9.928;2023-01-25T00:08:57;101511.59;;;0.74;96.67
19624;BME280;9959;49.798;9.928;2023-01-25T00:11:24;101515.41;;;0.70;96.66
19624;BME280;9959;49.798;9.928;2023-01-25T00:13:55;101510.28;;;0.67;97.21
19624;BME280;9959;49.798;9.928;2023-01-25T00:16:23;101510.94;;;0.71;96.77
19624;BME280;9959;49.798;9.928;2023-01-25T00:18:50;101507.84;;;0.64;97.26
19624;BME280;9959;49.798;9.928;2023-01-25T00:21:23;101509.25;;;0.70;96.77
19624;BME280;9959;49.798;9.928;2023-01-25T00:23:51;101505.63;;;0.71;96.78
19624;BME280;9959;49.798;9.928;2023-01-25T00:26:32;101503.09;;;0.69;97.04
19624;BME280;9959;49.798;9.928;2023-01-25T00:29:01;101501.94;;;0.73;97.25
19624;BME280;9959;49.798;9.928;2023-01-25T00:37:10;101496.06;;;0.68;96.85
19624;BME280;9959;49.798;9.928;2023-01-25T00:39:40;101498.63;;;0.70;97.14
19624;BME280;9959;49.798;9.928;2023-01-25T00:44:38;101500.09;;;0.61;97.35
19624;BME280;9959;49.798;9.928;2023-01-25T00:47:05;101492.88;;;0.63;97.30
19624;BME280;9959;49.798;9.928;2023-01-25T00:49:32;101498.63;;;0.82;96.81
19624;BME280;9959;49.798;9.928;2023-01-25T00:51:59;101498.38;;;0.60;96.69
19624;BME280;9959;49.798;9.928;2023-01-25T00:54:26;101487.56;;;0.63;97.60
19624;BME280;9959;49.798;9.928;2023-01-25T00:56:52;101485.25;;;0.71;96.91
19624;BME280;9959;49.798;9.928;2023-01-25T00:59:23;101487.38;;;0.66;96.12
19624;BME280;9959;49.798;9.928;2023-01-25T01:01:51;101489.63;;;0.72;96.55
19624;BME280;9959;49.798;9.928;2023-01-25T01:04:19;101486.22;;;0.70;96.92
19624;BME280;9959;49.798;9.928;2023-01-25T01:06:46;101484.81;;;0.64;96.39
19624;BME280;9959;49.798;9.928;2023-01-25T01:09:15;101479.66;;;0.76;96.82
19624;BME280;9959;49.798;9.928;2023-01-25T01:11:42;101480.16;;;0.68;96.47
19624;BME280;9959;49.798;9.928;2023-01-25T01:14:09;101486.72;;;0.62;96.85
19624;BME280;9959;49.798;9.928;2023-01-25T01:16:35;101485.31;;;0.57;97.49
19624;BME280;9959;49.798;9.928;2023-01-25T01:19:02;101483.31;;;0.60;96.49
19624;BME280;9959;49.798;9.928;2023-01-25T01:21:29;101478.13;;;0.59;97.44
19624;BME280;9959;49.798;9.928;2023-01-25T01:23:56;101488.22;;;0.54;97.80
19624;BME280;9959;49.798;9.928;2023-01-25T01:26:23;101480.97;;;0.56;97.41
19624;BME280;9959;49.798;9.928;2023-01-25T01:28:50;101480.56;;;0.62;97.59
19624;BME280;9959;49.798;9.928;2023-01-25T01:31:19;101474.53;;;0.60;96.67
19624;BME280;9959;49.798;9.928;2023-01-25T01:33:48;101472.50;;;0.63;97.00
19624;BME280;9959;49.798;9.928;2023-01-25T01:36:17;101468.06;;;0.64;97.39
19624;BME280;9959;49.798;9.928;2023-01-25T01:38:45;101464.66;;;0.62;97.67
19624;BME280;9959;49.798;9.928;2023-01-25T01:41:12;101466.56;;;0.60;97.42
19624;BME280;9959;49.798;9.928;2023-01-25T01:43:40;101474.41;;;0.61;97.58
19624;BME280;9959;49.798;9.928;2023-01-25T01:51:45;101470.06;;;0.60;97.21
19624;BME280;9959;49.798;9.928;2023-01-25T01:54:43;101467.22;;;0.63;96.91
19624;BME280;9959;49.798;9.928;2023-01-25T01:57:15;101468.34;;;0.47;97.50
19624;BME280;9959;49.798;9.928;2023-01-25T01:59:58;101464.44;;;0.52;97.83
19624;BME280;9959;49.798;9.928;2023-01-25T02:02:27;101475.91;;;0.53;97.17
19624;BME280;9959;49.798;9.928;2023-01-25T02:04:57;101474.88;;;0.68;97.47
19624;BME280;9959;49.798;9.928;2023-01-25T02:07:31;101467.44;;;0.73;96.25
19624;BME280;9959;49.798;9.928;2023-01-25T02:10:02;101469.31;;;0.58;96.29
19624;BME280;9959;49.798;9.928;2023-01-25T02:12:30;101465.91;;;0.56;96.29
19624;BME280;9959;49.798;9.928;2023-01-25T02:14:57;101460.00;;;0.53;96.71
19624;BME280;9959;49.798;9.928;2023-01-25T02:17:28;101472.63;;;0.62;96.52
19624;BME280;9959;49.798;9.928;2023-01-25T02:22:57;101459.50;;;0.73;96.00
19624;BME280;9959;49.798;9.928;2023-01-25T02:25:25;101457.91;;;0.71;95.83
19624;BME280;9959;49.798;9.928;2023-01-25T02:28:04;101463.38;;;0.55;96.20
19624;BME280;9959;49.798;9.928;2023-01-25T02:30:33;101464.66;;;0.62;96.45
19624;BME280;9959;49.798;9.928;2023-01-25T02:33:00;101459.25;;;0.63;95.70
19624;BME280;9959;49.798;9.928;2023-01-25T02:35:37;101455.41;;;0.55;96.03
19624;BME280;9959;49.798;9.928;2023-01-25T02:38:06;101460.84;;;0.66;96.01
19624;BME280;9959;49.798;9.928;2023-01-25T02:40:40;101453.22;;;0.74;95.22
19624;BME280;9959;49.798;9.928;2023-01-25T02:45:37;101447.25;;;0.58;95.76
19624;BME280;9959;49.798;9.928;2023-01-25T02:48:07;101460.50;;;0.58;96.19
19624;BME280;9959;49.798;9.928;2023-01-25T02:50:34;101449.81;;;0.59;96.85
19624;BME280;9959;49.798;9.928;2023-01-25T02:53:01;101448.94;;;0.59;96.68
19624;BME280;9959;49.798;9.928;2023-01-25T02:55:28;101440.25;;;0.57;97.06
19624;BME280;9959;49.798;9.928;2023-01-25T02:57:54;101444.28;;;0.62;96.61
19624;BME280;9959;49.798;9.928;2023-01-25T03:00:21;101443.66;;;0.59;96.74
19624;BME280;9959;49.798;9.928;2023-01-25T03:02:49;101441.09;;;0.45;96.48
19624;BME280;9959;49.798;9.928;2023-01-25T03:05:15;101436.19;;;0.39;96.84
19624;BME280;9959;49.798;9.928;2023-01-25T03:07:42;101442.88;;;0.44;97.42
19624;BME280;9959;49.798;9.928;2023-01-25T03:10:09;101431.78;;;0.52;96.60
19624;BME280;9959;49.798;9.928;2023-01-25T03:12:36;101437.19;;;0.50;96.23
19624;BME280;9959;49.798;9.928;2023-01-25T03:15:03;101439.19;;;0.59;95.83
19624;BME280;9959;49.798;9.928;2023-01-25T03:17:30;101440.25;;;0.57;96.13
19624;BME280;9959;49.798;9.928;2023-01-25T03:19:57;101429.03;;;0.66;95.68
19624;BME280;9959;49.798;9.928;2023-01-25T03:22:23;101423.38;;;0.58;95.90
19624;BME280;9959;49.798;9.928;2023-01-25T03:24:51;101429.97;;;0.52;95.60
19624;BME280;9959;49.798;9.928;2023-01-25T03:27:18;101436.44;;;0.48;96.43
19624;BME280;9959;49.798;9.928;2023-01-25T03:29:45;101429.88;;;0.54;96.42
19624;BME280;9959;49.798;9.928;2023-01-25T03:32:11;101436.84;;;0.55;96.52
19624;BME280;9959;49.798;9.928;2023-01-25T03:34:38;101428.59;;;0.47;97.03
19624;BME280;9959;49.798;9.928;2023-01-25T03:37:05;101428.88;;;0.42;97.11
19624;BME280;9959;49.798;9.928;2023-01-25T03:39:32;101426.69;;;0.49;96.36
19624;BME280;9959;49.798;9.928;2023-01-25T03:41:59;101423.69;;;0.41;96.64
19624;BME280;9959;49.798;9.928;2023-01-25T03:44:25;101417.56;;;0.53;96.39
19624;BME280;9959;49.798;9.928;2023-01-25T03:46:55;101417.56;;;0.53;96.87
19624;BME280;9959;49.798;9.928;2023-01-25T03:49:22;101418.81;;;0.47;97.02
19624;BME280;9959;49.798;9.928;2023-01-25T03:51:49;101411.38;;;0.40;96.71
19624;BME280;9959;49.798;9.928;2023-01-25T03:54:15;101413.81;;;0.43;96.75
19624;BME280;9959;49.798;9.928;2023-01-25T03:56:42;101415.63;;;0.55;96.30
19624;BME280;9959;49.798;9.928;2023-01-25T03:59:10;101406.97;;;0.53;96.66
19624;BME280;9959;49.798;9.928;2023-01-25T04:01:37;101409.91;;;0.61;96.51
19624;BME280;9959;49.798;9.928;2023-01-25T04:04:04;101401.66;;;0.53;96.30
19624;BME280;9959;49.798;9.928;2023-01-25T04:06:31;101408.00;;;0.50;96.77
19624;BME280;9959;49.798;9.928;2023-01-25T04:08:58;101407.56;;;0.44;97.05
19624;BME280;9959;49.798;9.928;2023-01-25T04:11:25;101403.34;;;0.54;96.91
19624;BME280;9959;49.798;9.928;2023-01-25T04:13:51;101405.22;;;0.39;97.19
19624;BME280;9959;49.798;9.928;2023-01-25T04:16:18;101402.13;;;0.32;97.69
19624;BME280;9959;49.798;9.928;2023-01-25T04:18:45;101399.28;;;0.36;97.98
19624;BME280;9959;49.798;9.928;2023-01-25T04:21:12;101403.88;;;0.46;97.43
19624;BME280;9959;49.798;9.928;2023-01-25T04:23:38;101384.88;;;0.40;96.73
19624;BME280;9959;49.798;9.928;2023-01-25T04:26:06;101388.06;;;0.45;97.01
19624;BME280;9959;49.798;9.928;2023-01-25T04:28:34;101385.75;;;0.65;95.88
19624;BME280;9959;49.798;9.928;2023-01-25T04:31:01;101381.41;;;0.52;96.28
19624;BME280;9959;49.798;9.928;2023-01-25T04:33:29;101383.41;;;0.48;96.63
19624;BME280;9959;49.798;9.928;2023-01-25T04:35:56;101380.81;;;0.34;97.21
19624;BME280;9959;49.798;9.928;2023-01-25T04:38:23;101378.19;;;0.34;96.99
19624;BME280;9959;49.798;9.928;2023-01-25T04:40:50;101374.06;;;0.43;96.94
19624;BME280;9959;49.798;9.928;2023-01-25T04:43:18;101375.53;;;0.34;96.98
19624;BME280;9959;49.798;9.928;2023-01-25T04:45:45;101364.28;;;0.30;97.07
19624;BME280;9959;49.798;9.928;2023-01-25T04:48:13;101355.72;;;0.27;97.51
19624;BME280;9959;49.798;9.928;2023-01-25T04:50:41;101357.19;;;0.44;97.69
19624;BME280;9959;49.798;9.928;2023-01-25T04:55:36;101358.91;;;0.45;97.04
19624;BME280;9959;49.798;9.928;2023-01-25T04:58:03;101353.06;;;0.40;97.27
19624;BME280;9959;49.798;9.928;2023-01-25T05:00:30;101343.75;;;0.47;96.78
19624;BME280;9959;49.798;9.928;2023-01-25T05:02:57;101346.06;;;0.39;97.29
19624;BME280;9959;49.798;9.928;2023-01-25T05:05:27;101345.63;;;0.19;97.92
19624;BME280;9959;49.798;9.928;2023-01-25T05:07:54;101346.06;;;0.26;98.50
19624;BME280;9959;49.798;9.928;2023-01-25T05:10:21;101349.44;;;0.41;98.28
19624;BME280;9959;49.798;9.928;2023-01-25T05:12:48;101347.56;;;0.43;97.52
19624;BME280;9959;49.798;9.928;2023-01-25T05:15:15;101344.38;;;0.50;96.74
19624;BME280;9959;49.798;9.928;2023-01-25T05:17:41;101350.94;;;0.57;97.01
19624;BME280;9959;49.798;9.928;2023-01-25T05:20:09;101340.34;;;0.45;97.38
19624;BME280;9959;49.798;9.928;2023-01-25T05:22:35;101337.56;;;0.33;97.61
19624;BME280;9959;49.798;9.928;2023-01-25T05:25:02;101338.41;;;0.21;98.38
19624;BME280;9959;49.798;9.928;2023-01-25T05:27:31;101337.56;;;0.33;97.83
19624;BME280;9959;49.798;9.928;2023-01-25T05:29:58;101335.25;;;0.42;97.79
19624;BME280;9959;49.798;9.928;2023-01-25T05:32:25;101327.41;;;0.40;97.09
19624;BME280;9959;49.798;9.928;2023-01-25T05:34:51;101335.69;;;0.48;97.54
19624;BME280;9959;49.798;9.928;2023-01-25T05:37:22;101328.25;;;0.41;97.79
19624;BME280;9959;49.798;9.928;2023-01-25T05:39:49;101332.94;;;0.50;97.61
19624;BME280;9959;49.798;9.928;2023-01-25T05:42:17;101324.22;;;0.35;97.92
19624;BME280;9959;49.798;9.928;2023-01-25T05:44:44;101327.50;;;0.39;97.86
19624;BME280;9959;49.798;9.928;2023-01-25T05:47:14;101331.75;;;0.54;97.35
19624;BME280;9959;49.798;9.928;2023-01-25T05:49:41;101331.41;;;0.33;98.20
19624;BME280;9959;49.798;9.928;2023-01-25T05:54:37;101332.06;;;0.37;98.04
19624;BME280;9959;49.798;9.928;2023-01-25T05:57:04;101325.72;;;0.52;98.10
19624;BME280;9959;49.798;9.928;2023-01-25T05:59:31;101320.41;;;0.52;98.11
19624;BME280;9959;49.798;9.928;2023-01-25T06:01:58;101308.94;;;0.64;96.42
19624;BME280;9959;49.798;9.928;2023-01-25T06:04:24;101311.91;;;0.59;97.71
19624;BME280;9959;49.798;9.928;2023-01-25T06:06:51;101315.09;;;0.39;97.79
19624;BME280;9959;49.798;9.928;2023-01-25T06:09:18;101309.34;;;0.58;97.77
19624;BME280;9959;49.798;9.928;2023-01-25T06:11:46;101310.44;;;0.43;98.02
19624;BME280;9959;49.798;9.928;2023-01-25T06:14:13;101307.56;;;0.46;97.96
19624;BME280;9959;49.798;9.928;2023-01-25T06:16:40;101304.78;;;0.60;97.54
19624;BME280;9959;49.798;9.928;2023-01-25T06:21:38;101306.63;;;0.47;97.73
19624;BME280;9959;49.798;9.928;2023-01-25T06:24:05;101300.25;;;0.49;97.75
19624;BME280;9959;49.798;9.928;2023-01-25T06:26:32;101305.75;;;0.59;97.94
19624;BME280;9959;49.798;9.928;2023-01-25T06:28:58;101307.91;;;0.54;98.17
19624;BME280;9959;49.798;9.928;2023-01-25T06:31:25;101307.44;;;0.60;97.45
19624;BME280;9959;49.798;9.928;2023-01-25T06:33:52;101312.53;;;0.63;97.17
19624;BME280;9959;49.798;9.928;2023-01-25T06:36:20;101303.84;;;0.61;97.14
19624;BME280;9959;49.798;9.928;2023-01-25T06:38:51;101313.31;;;0.52;97.54
19624;BME280;9959;49.798;9.928;2023-01-25T06:41:19;101304.25;;;0.67;97.46
19624;BME280;9959;49.798;9.928;2023-01-25T06:43:46;101313.19;;;0.54;97.64
19624;BME280;9959;49.798;9.928;2023-01-25T06:46:15;101302.25;;;0.58;97.74
19624;BME280;9959;49.798;9.928;2023-01-25T06:48:42;101307.44;;;0.60;97.52
19624;BME280;9959;49.798;9.928;2023-01-25T06:53:43;101303.84;;;0.61;97.20
19624;BME280;9959;49.798;9.928;2023-01-25T06:56:15;101303.75;;;0.50;97.64
19624;BME280;9959;49.798;9.928;2023-01-25T06:58:43;101300.66;;;0.56;97.98
19624;BME280;9959;49.798;9.928;2023-01-25T07:03:38;101300.13;;;0.76;96.60
19624;BME280;9959;49.798;9.928;2023-01-25T07:06:08;101301.63;;;0.67;97.16
19624;BME280;9959;49.798;9.928;2023-01-25T07:08:35;101300.78;;;0.54;97.40
19624;BME280;9959;49.798;9.928;2023-01-25T07:11:04;101306.13;;;0.91;96.39
19624;BME280;9959;49.798;9.928;2023-01-25T07:13:32;101292.38;;;0.60;96.93
19624;BME280;9959;49.798;9.928;2023-01-25T07:16:04;101303.44;;;0.54;97.78
19624;BME280;9959;49.798;9.928;2023-01-25T07:18:34;101304.59;;;0.63;97.80
19624;BME280;9959;49.798;9.928;2023-01-25T07:21:06;101298.31;;;0.77;97.02
19624;BME280;9959;49.798;9.928;2023-01-25T07:23:33;101300.44;;;0.59;97.50
19624;BME280;9959;49.798;9.928;2023-01-25T07:26:00;101295.13;;;0.59;98.62
19624;BME280;9959;49.798;9.928;2023-01-25T07:28:27;101298.63;;;0.59;98.70
19624;BME280;9959;49.798;9.928;2023-01-25T07:30:54;101296.53;;;0.64;98.03
19624;BME280;9959;49.798;9.928;2023-01-25T07:33:20;101296.84;;;0.60;98.47
19624;BME280;9959;49.798;9.928;2023-01-25T07:35:47;101300.13;;;0.63;98.52
19624;BME280;9959;49.798;9.928;2023-01-25T07:38:16;101300.88;;;0.65;99.22
19624;BME280;9959;49.798;9.928;2023-01-25T07:40:43;101307.88;;;0.66;98.52
19624;BME280;9959;49.798;9.928;2023-01-25T07:43:10;101304.91;;;0.58;99.53
19624;BME280;9959;49.798;9.928;2023-01-25T07:45:36;101300.91;;;0.53;99.65
19624;BME280;9959;49.798;9.928;2023-01-25T07:48:07;101300.16;;;0.51;100.00
19624;BME280;9959;49.798;9.928;2023-01-25T07:50:36;101303.31;;;0.56;100.00
19624;BME280;9959;49.798;9.928;2023-01-25T07:53:02;101298.75;;;0.58;100.00
19624;BME280;9959;49.798;9.928;2023-01-25T07:55:29;101300.44;;;0.59;100.00
19624;BME280;9959;49.798;9.928;2023-01-25T07:57:56;101296.09;;;0.58;99.83
19624;BME280;9959;49.798;9.928;2023-01-25T08:00:23;101297.16;;;0.55;99.84
19624;BME280;9959;49.798;9.928;2023-01-25T08:02:51;101297.69;;;0.60;99.80
19624;BME280;9959;49.798;9.928;2023-01-25T08:05:18;101295.34;;;0.56;99.94
19624;BME280;9959;49.798;9.928;2023-01-25T08:07:45;101295.88;;;0.61;100.00
19624;BME280;9959;49.798;9.928;2023-01-25T08:10:12;101294.41;;;0.57;99.79
19624;BME280;9959;49.798;9.928;2023-01-25T08:12:43;101293.44;;;0.58;99.96
19624;BME280;9959;49.798;9.928;2023-01-25T08:15:12;101294.50;;;0.68;98.90
19624;BME280;9959;49.798;9.928;2023-01-25T08:17:39;101294.41;;;0.57;99.99
19624;BME280;9959;49.798;9.928;2023-01-25T08:20:06;101296.63;;;0.63;98.61
19624;BME280;9959;49.798;9.928;2023-01-25T08:22:34;101291.44;;;0.61;98.71
19624;BME280;9959;49.798;9.928;2023-01-25T08:25:02;101290.91;;;0.69;98.62
19624;BME280;9959;49.798;9.928;2023-01-25T08:27:29;101298.66;;;0.72;98.34
19624;BME280;9959;49.798;9.928;2023-01-25T08:29:55;101293.41;;;0.83;97.44
19624;BME280;9959;49.798;9.928;2023-01-25T08:32:22;101292.81;;;0.80;98.00
19624;BME280;9959;49.798;9.928;2023-01-25T08:34:49;101286.56;;;0.68;97.58
19624;BME280;9959;49.798;9.928;2023-01-25T08:37:16;101292.91;;;0.65;98.51
19624;BME280;9959;49.798;9.928;2023-01-25T08:39:42;101286.19;;;0.85;97.69
19624;BME280;9959;49.798;9.928;2023-01-25T08:42:09;101287.97;;;0.97;97.24
19624;BME280;9959;49.798;9.928;2023-01-25T08:44:35;101283.84;;;0.93;96.62
19624;BME280;9959;49.798;9.928;2023-01-25T08:47:02;101282.38;;;0.89;96.24
19624;BME280;9959;49.798;9.928;2023-01-25T08:49:29;101282.56;;;0.86;96.48
19624;BME280;9959;49.798;9.928;2023-01-25T08:51:56;101277.09;;;0.64;96.79
19624;BME280;9959;49.798;9.928;2023-01-25T08:54:23;101266.78;;;0.85;96.83
19624;BME280;9959;49.798;9.928;2023-01-25T08:56:50;101261.66;;;0.94;96.39
19624;BME280;9959;49.798;9.928;2023-01-25T08:59:17;101258.38;;;0.91;95.60
19624;BME280;9959;49.798;9.928;2023-01-25T09:01:44;101261.34;;;0.86;95.57
19624;BME280;9959;49.798;9.928;2023-01-25T09:04:11;101259.66;;;0.85;94.58
19624;BME280;9959;49.798;9.928;2023-01-25T09:06:38;101269.63;;;0.94;94.30
19624;BME280;9959;49.798;9.928;2023-01-25T09:09:04;101259.44;;;0.88;95.12
19624;BME280;9959;49.798;9.928;2023-01-25T09:11:33;101259.66;;;0.85;94.75
19624;BME280;9959;49.798;9.928;2023-01-25T09:14:00;101255.50;;;0.94;94.37
19624;BME280;9959;49.798;9.928;2023-01-25T09:16:27;101260.56;;;0.73;95.16
19624;BME280;9959;49.798;9.928;2023-01-25T09:19:00;101261.34;;;0.86;94.60
19624;BME280;9959;49.798;9.928;2023-01-25T09:21:28;101252.75;;;0.83;94.67
19624;BME280;9959;49.798;9.928;2023-01-25T09:23:55;101255.84;;;0.89;94.83
19624;BME280;9959;49.798;9.928;2023-01-25T09:26:33;101254.56;;;0.82;95.46
19624;BME280;9959;49.798;9.928;2023-01-25T09:29:00;101257.38;;;0.81;95.82
19624;BME280;9959;49.798;9.928;2023-01-25T09:31:26;101251.56;;;0.99;94.71
19624;BME280;9959;49.798;9.928;2023-01-25T09:33:55;101252.81;;;1.07;93.88
19624;BME280;9959;49.798;9.928;2023-01-25T09:36:22;101249.44;;;1.05;93.96
19624;BME280;9959;49.798;9.928;2023-01-25T09:38:49;101248.84;;;0.88;94.06
19624;BME280;9959;49.798;9.928;2023-01-25T09:41:47;101257.75;;;0.87;94.94
19624;BME280;9959;49.798;9.928;2023-01-25T09:47:20;101246.25;;;0.99;93.28
19624;BME280;9959;49.798;9.928;2023-01-25T09:55:24;101254.47;;;0.84;94.62
19624;BME280;9959;49.798;9.928;2023-01-25T09:57:54;101256.78;;;0.88;94.27
19624;BME280;9959;49.798;9.928;2023-01-25T10:00:53;101242.88;;;0.97;93.24
19624;BME280;9959;49.798;9.928;2023-01-25T10:03:41;101245.59;;;1.09;92.84
19624;BME280;9959;49.798;9.928;2023-01-25T10:06:12;101236.94;;;0.94;93.47
19624;BME280;9959;49.798;9.928;2023-01-25T10:13:36;101242.69;;;1.12;92.60
19624;BME280;9959;49.798;9.928;2023-01-25T10:18:55;101242.47;;;0.91;91.39
19624;BME280;9959;49.798;9.928;2023-01-25T10:21:29;101239.91;;;0.89;91.88
19624;BME280;9959;49.798;9.928;2023-01-25T10:26:37;101234.50;;;0.91;91.79
19624;BME280;9959;49.798;9.928;2023-01-25T10:31:49;101228.00;;;0.95;92.07
19624;BME280;9959;49.798;9.928;2023-01-25T10:34:23;101222.28;;;1.01;91.94
19624;BME280;9959;49.798;9.928;2023-01-25T10:36:57;101217.00;;;0.88;92.06
19624;BME280;9959;49.798;9.928;2023-01-25T10:39:27;101216.34;;;0.97;91.64
19624;BME280;9959;49.798;9.928;2023-01-25T10:42:06;101214.63;;;0.96;92.32
19624;BME280;9959;49.798;9.928;2023-01-25T10:44:35;101207.41;;;0.98;91.30
19624;BME280;9959;49.798;9.928;2023-01-25T10:49:36;101201.44;;;1.08;90.76
19624;BME280;9959;49.798;9.928;2023-01-25T10:54:40;101185.44;;;1.20;90.79
19624;BME280;9959;49.798;9.928;2023-01-25T10:57:08;101185.97;;;1.01;90.61
19624;BME280;9959;49.798;9.928;2023-01-25T10:59:38;101181.28;;;1.05;89.74
19624;BME280;9959;49.798;9.928;2023-01-25T11:04:38;101182.13;;;1.06;89.20
19624;BME280;9959;49.798;9.928;2023-01-25T11:09:38;101157.03;;;1.10;89.13
19624;BME280;9959;49.798;9.928;2023-01-25T11:14:36;101150.50;;;1.02;89.12
19624;BME280;9959;49.798;9.928;2023-01-25T11:17:04;101151.88;;;1.08;88.84
19624;BME280;9959;49.798;9.928;2023-01-25T11:19:33;101142.56;;;1.02;89.17
19624;BME280;9959;49.798;9.928;2023-01-25T11:22:04;101142.81;;;1.11;88.53
19624;BME280;9959;49.798;9.928;2023-01-25T11:24:34;101136.28;;;1.04;88.97
19624;BME280;9959;49.798;9.928;2023-01-25T11:29:37;101128.84;;;1.09;89.81
19624;BME280;9959;49.798;9.928;2023-01-25T11:34:37;101122.09;;;1.16;89.12
19624;BME280;9959;49.798;9.928;2023-01-25T11:39:41;101110.97;;;1.11;88.44
19624;BME280;9959;49.798;9.928;2023-01-25T11:53:09;101092.94;;;1.27;88.68
19624;BME280;9959;49.798;9.928;2023-01-25T12:12:02;101044.88;;;1.19;87.24
19624;BME280;9959;49.798;9.928;2023-01-25T12:20:05;101027.38;;;1.05;87.75
19624;BME280;9959;49.798;9.928;2023-01-25T12:30:44;101024.22;;;1.00;87.28
19624;BME280;9959;49.798;9.928;2023-01-25T12:33:30;101009.25;;;1.10;87.26
19624;BME280;9959;49.798;9.928;2023-01-25T12:39:03;101000.63;;;0.84;88.41
19624;BME280;9959;49.798;9.928;2023-01-25T12:44:34;100996.59;;;1.02;88.02
19624;BME280;9959;49.798;9.928;2023-01-25T12:49:50;100985.41;;;1.21;87.66
19624;BME280;9959;49.798;9.928;2023-01-25T12:52:25;100975.81;;;0.85;88.83
19624;BME280;9959;49.798;9.928;2023-01-25T12:54:56;100968.97;;;0.94;88.38
19624;BME280;9959;49.798;9.928;2023-01-25T13:05:32;100948.59;;;1.17;88.61
19624;BME280;9959;49.798;9.928;2023-01-25T13:10:49;100934.59;;;1.15;87.86
19624;BME280;9959;49.798;9.928;2023-01-25T13:15:47;100924.72;;;1.17;88.33
19624;BME280;9959;49.798;9.928;2023-01-25T13:20:52;100918.94;;;1.00;88.25
19624;BME280;9959;49.798;9.928;2023-01-25T13:23:33;100918.19;;;1.10;88.14
19624;BME280;9959;49.798;9.928;2023-01-25T13:28:42;100916.38;;;0.99;88.07
19624;BME280;9959;49.798;9.928;2023-01-25T13:42:13;100906.25;;;0.93;88.07
19624;BME280;9959;49.798;9.928;2023-01-25T13:44:43;100907.97;;;1.05;87.04
19624;BME280;9959;49.798;9.928;2023-01-25T13:47:14;100907.81;;;1.18;86.65
19624;BME280;9959;49.798;9.928;2023-01-25T13:49:50;100895.03;;;0.89;87.74
19624;BME280;9959;49.798;9.928;2023-01-25T13:52:22;100890.94;;;0.96;88.70
19624;BME280;9959;49.798;9.928;2023-01-25T13:54:54;100884.28;;;0.91;88.43
19624;BME280;9959;49.798;9.928;2023-01-25T13:57:29;100892.41;;;1.00;88.25
19624;BME280;9959;49.798;9.928;2023-01-25T14:00:04;100886.34;;;1.10;88.22
19624;BME280;9959;49.798;9.928;2023-01-25T14:02:36;100881.03;;;0.87;87.81
19624;BME280;9959;49.798;9.928;2023-01-25T14:05:05;100881.03;;;0.87;87.96
19624;BME280;9959;49.798;9.928;2023-01-25T14:07:33;100882.00;;;0.97;88.32
19624;BME280;9959;49.798;9.928;2023-01-25T14:12:40;100875.47;;;0.68;88.11
19624;BME280;9959;49.798;9.928;2023-01-25T14:15:30;100867.16;;;0.73;87.89
19624;BME280;9959;49.798;9.928;2023-01-25T14:20:35;100866.34;;;0.94;87.86
19624;BME280;9959;49.798;9.928;2023-01-25T14:23:02;100855.72;;;0.94;87.73
19624;BME280;9959;49.798;9.928;2023-01-25T14:25:32;100857.66;;;0.92;87.96
19624;BME280;9959;49.798;9.928;2023-01-25T14:27:59;100860.03;;;0.84;88.72
19624;BME280;9959;49.798;9.928;2023-01-25T14:30:30;100858.50;;;0.93;87.46
19624;BME280;9959;49.798;9.928;2023-01-25T14:33:00;100849.44;;;0.73;89.21
19624;BME280;9959;49.798;9.928;2023-01-25T14:40:55;100844.63;;;0.78;89.34
19624;BME280;9959;49.798;9.928;2023-01-25T14:43:23;100831.84;;;0.83;87.81
19624;BME280;9959;49.798;9.928;2023-01-25T14:45:51;100828.34;;;0.94;87.70
19624;BME280;9959;49.798;9.928;2023-01-25T14:48:35;100833.19;;;1.00;87.03
19624;BME280;9959;49.798;9.928;2023-01-25T14:51:05;100822.19;;;0.71;87.46
19624;BME280;9959;49.798;9.928;2023-01-25T14:53:38;100827.50;;;0.71;87.75
19624;BME280;9959;49.798;9.928;2023-01-25T14:58:40;100820.03;;;0.76;88.42
19624;BME280;9959;49.798;9.928;2023-01-25T15:03:41;100809.16;;;0.57;89.08
19624;BME280;9959;49.798;9.928;2023-01-25T15:08:38;100808.44;;;0.66;88.49
19624;BME280;9959;49.798;9.928;2023-01-25T15:16:38;100810.84;;;0.58;88.23
19624;BME280;9959;49.798;9.928;2023-01-25T15:21:39;100801.94;;;0.59;87.86
19624;BME280;9959;49.798;9.928;2023-01-25T15:26:38;100811.94;;;0.66;87.53
19624;BME280;9959;49.798;9.928;2023-01-25T15:31:36;100796.41;;;0.62;87.48
19624;BME280;9959;49.798;9.928;2023-01-25T15:34:04;100793.50;;;0.65;87.15
19624;BME280;9959;49.798;9.928;2023-01-25T15:36:33;100790.84;;;0.43;87.91
19624;BME280;9959;49.798;9.928;2023-01-25T15:39:00;100793.53;;;0.54;87.96
19624;BME280;9959;49.798;9.928;2023-01-25T15:41:27;100783.38;;;0.48;89.08
19624;BME280;9959;49.798;9.928;2023-01-25T15:43:54;100782.41;;;0.60;88.07
19624;BME280;9959;49.798;9.928;2023-01-25T15:46:25;100781.69;;;0.58;88.02
19624;BME280;9959;49.798;9.928;2023-01-25T15:48:52;100779.75;;;0.60;88.06
19624;BME280;9959;49.798;9.928;2023-01-25T15:51:20;100776.41;;;0.47;88.75
19624;BME280;9959;49.798;9.928;2023-01-25T15:53:47;100777.59;;;0.65;88.18
19624;BME280;9959;49.798;9.928;2023-01-25T15:56:26;100774.94;;;0.65;87.85
19624;BME280;9959;49.798;9.928;2023-01-25T15:58:55;100778.44;;;0.65;87.42
19624;BME280;9959;49.798;9.928;2023-01-25T16:01:24;100774.22;;;0.74;87.39
19624;BME280;9959;49.798;9.928;2023-01-25T16:03:57;100777.47;;;0.66;87.94
19624;BME280;9959;49.798;9.928;2023-01-25T16:06:35;100768.31;;;0.59;88.06
19624;BME280;9959;49.798;9.928;2023-01-25T16:11:38;100763.25;;;0.67;87.54
19624;BME280;9959;49.798;9.928;2023-01-25T16:14:05;100754.94;;;0.72;87.78
19624;BME280;9959;49.798;9.928;2023-01-25T16:16:36;100752.03;;;0.64;87.38
19624;BME280;9959;49.798;9.928;2023-01-25T16:19:05;100759.28;;;0.62;87.80
19624;BME280;9959;49.798;9.928;2023-01-25T16:21:31;100754.81;;;0.62;87.35
19624;BME280;9959;49.798;9.928;2023-01-25T16:23:58;100761.44;;;0.57;87.41
19624;BME280;9959;49.798;9.928;2023-01-25T16:26:26;100763.25;;;0.45;87.86